Denver, Illinois
Current Conditions -  °F | °C
As of 10:35 PM on Tuesday 21 Oct 2014 (Local Time) from KMQB Reporting Station
Clear Clear  
Wind Chill: 37°   Ceiling: Unl
Heat Index: 40°   Visibility: 10mi
Dew Point: 37°   Wind: 5mph
Humidity: 88%   Direction: 80°E
Pressure: 30.25"   Gusts: NA
Location:  40.4155°N, 91.0269°W
Report Text: KMQB 220335Z AUTO 08004KT 10SM CLR 05/03 A3025 RMK AO2 T00450027
Loading
Personal Weather Stations






























Interactive Weather Map
Tropical Storm Tracking
New forecast layout! Learn more

10-Day Weather Forecast

Advertisements
Track Severe Weather on mobile